TS68 weather

Valley Baptist Medical Center (Vbmc) Heliport
Harlingen, Texas, United States

Public forecast

Using degrees Fahrenheit for public forecast. Weather courtesy of forecast.io.

Closest aviation weather report (METAR) to Valley Baptist Medical Center (Vbmc) Heliport

Closest report is Valley International Airport, 3.3 nm (6.1 km) NNE. Retrieved 2019/10/23 20:52 UTC (55 minutes ago):

KHRL 232052Z 12016KT 10SM FEW043 FEW080 30/19 A2993 RMK AO2 SLP136 T03000189 56026

Closest aviation forecast (TAF) to Valley Baptist Medical Center (Vbmc) Heliport

Closest forecast is Valley International Airport, 3.3 nm (6.1 km) NNE. Retrieved 2019/10/23 18:36 UTC (3 hours ago):

TAF KHRL 231735Z 2318/2418 13014G20KT P6SM SCT040 SCT250 FM240100 12008KT P6SM BKN050 BKN150 FM240900 10006KT P6SM VCSH BKN040 TEMPO 2410/2414 -SHRA FM241500 15010KT P6SM VCSH OVC050